createdAt,value
2018-12-30T00:00:00.587Z,3.1
2018-12-30T00:01:00.360Z,3.1
2018-12-30T00:02:02.087Z,3.09
2018-12-30T00:03:02.442Z,3.09
2018-12-30T00:04:01.927Z,3.11
2018-12-30T00:05:02.156Z,3.08
2018-12-30T00:06:02.237Z,3.09
2018-12-30T00:07:00.149Z,3.09
2018-12-30T00:08:00.340Z,3.1
2018-12-30T00:09:02.509Z,3.09
2018-12-30T00:10:00.522Z,3.09
2018-12-30T00:11:02.660Z,3.12
2018-12-30T00:12:00.078Z,3.1
2018-12-30T00:13:02.212Z,3.09
2018-12-30T00:14:00.136Z,3.1
2018-12-30T00:15:02.604Z,3.13
2018-12-30T00:16:00.779Z,3.11
2018-12-30T00:16:59.999Z,3.12
2018-12-30T00:18:00.266Z,3.13
2018-12-30T00:19:00.215Z,3.14
2018-12-30T00:20:00.234Z,3.13
2018-12-30T00:21:00.088Z,3.14
2018-12-30T00:22:02.077Z,3.15
2018-12-30T00:23:00.221Z,3.16
2018-12-30T00:24:00.374Z,3.15
2018-12-30T00:25:00.008Z,3.15
2018-12-30T00:26:00.019Z,3.15
2018-12-30T00:27:00.034Z,3.16
2018-12-30T00:28:00.426Z,3.19
2018-12-30T00:29:00.048Z,3.18
2018-12-30T00:30:00.582Z,3.19
2018-12-30T00:31:00.104Z,3.19
2018-12-30T00:32:00.113Z,3.2
2018-12-30T00:33:00.114Z,3.2
2018-12-30T00:34:00.009Z,3.2
2018-12-30T00:35:00.542Z,3.2
2018-12-30T00:36:00.281Z,3.2
2018-12-30T00:37:00.080Z,3.21
2018-12-30T00:38:00.108Z,3.22
2018-12-30T00:39:02.364Z,3.22
2018-12-30T00:40:00.243Z,3.22
2018-12-30T00:41:00.228Z,3.23
2018-12-30T00:42:00.045Z,3.27
2018-12-30T00:43:00.034Z,3.27
2018-12-30T00:43:59.998Z,3.28
2018-12-30T00:45:00.610Z,3.27
2018-12-30T00:46:00.333Z,3.28
2018-12-30T00:47:01.979Z,3.31
2018-12-30T00:47:59.954Z,3.29
2018-12-30T00:49:00.534Z,3.31
2018-12-30T00:50:00.570Z,3.28
2018-12-30T00:51:00.040Z,3.3
2018-12-30T00:52:00.218Z,3.31
2018-12-30T00:53:00.211Z,3.3
2018-12-30T00:54:00.174Z,3.32
2018-12-30T00:55:01.148Z,3.32
2018-12-30T00:56:00.342Z,3.32
2018-12-30T00:57:00.431Z,3.32
2018-12-30T00:58:00.250Z,3.33
2018-12-30T00:59:00.356Z,3.33
2018-12-30T01:00:00.455Z,3.32
2018-12-30T01:01:00.075Z,3.32
2018-12-30T01:02:00.070Z,3.33
2018-12-30T01:03:00.183Z,3.33
2018-12-30T01:04:00.688Z,3.33
2018-12-30T01:05:00.196Z,3.33
2018-12-30T01:06:00.473Z,3.33
2018-12-30T01:07:00.060Z,3.34
2018-12-30T01:08:00.262Z,3.37
2018-12-30T01:09:00.134Z,3.33
2018-12-30T01:10:00.025Z,3.34
2018-12-30T01:11:00.039Z,3.35
2018-12-30T01:12:02.362Z,3.34
2018-12-30T01:13:00.493Z,3.35
2018-12-30T01:14:00.070Z,3.37
2018-12-30T01:15:00.079Z,3.37
2018-12-30T01:15:59.975Z,3.34
2018-12-30T01:17:00.815Z,3.37
2018-12-30T01:18:00.238Z,3.38
2018-12-30T01:19:00.239Z,3.39
2018-12-30T01:20:01.887Z,3.43
2018-12-30T01:21:00.820Z,3.41
2018-12-30T01:22:00.159Z,3.44
2018-12-30T01:23:00.325Z,3.44
2018-12-30T01:24:00.123Z,3.45
2018-12-30T01:25:00.588Z,3.44
2018-12-30T01:26:00.329Z,3.46
2018-12-30T01:27:00.195Z,3.47
2018-12-30T01:28:01.482Z,3.5
2018-12-30T01:29:00.049Z,3.48
2018-12-30T01:30:00.478Z,3.48
2018-12-30T01:31:00.880Z,3.49
2018-12-30T01:32:00.088Z,3.51
2018-12-30T01:32:59.889Z,3.51
2018-12-30T01:34:00.554Z,3.52
2018-12-30T01:34:59.950Z,3.54
2018-12-30T01:36:00.307Z,3.5
2018-12-30T01:37:02.148Z,3.53
2018-12-30T01:38:00.124Z,3.56
2018-12-30T01:38:59.911Z,3.56
2018-12-30T01:40:00.041Z,3.57
2018-12-30T01:41:00.315Z,3.56
2018-12-30T01:42:00.376Z,3.57
2018-12-30T01:43:00.669Z,3.57
2018-12-30T01:44:00.307Z,3.58
2018-12-30T01:45:01.455Z,3.58
2018-12-30T01:45:59.976Z,3.59
2018-12-30T01:46:59.980Z,3.62
2018-12-30T01:48:00.297Z,3.62
2018-12-30T01:49:00.042Z,3.64
2018-12-30T01:50:00.779Z,3.64
2018-12-30T01:50:59.845Z,3.63
2018-12-30T01:51:59.967Z,3.64
2018-12-30T01:52:59.864Z,3.65
2018-12-30T01:54:01.931Z,3.65
2018-12-30T01:55:00.247Z,3.66
2018-12-30T01:56:00.267Z,3.66
2018-12-30T01:57:00.102Z,3.66
2018-12-30T01:57:59.889Z,3.68
2018-12-30T01:58:59.984Z,3.66
2018-12-30T02:00:00.452Z,3.69
2018-12-30T02:01:00.339Z,3.69
2018-12-30T02:02:01.436Z,3.7
2018-12-30T02:03:00.119Z,3.69
2018-12-30T02:03:59.943Z,3.69
2018-12-30T02:04:59.993Z,3.71
2018-12-30T02:05:59.818Z,3.7
2018-12-30T02:06:59.837Z,3.71
2018-12-30T02:07:59.929Z,3.73
2018-12-30T02:09:00.088Z,3.71
2018-12-30T02:09:59.903Z,3.71
2018-12-30T02:11:01.922Z,3.73
2018-12-30T02:11:59.904Z,3.73
2018-12-30T02:12:59.848Z,3.72
2018-12-30T02:13:59.877Z,3.73
2018-12-30T02:14:59.872Z,3.72
2018-12-30T02:16:00.113Z,3.74
2018-12-30T02:17:00.294Z,3.74
2018-12-30T02:17:59.854Z,3.71
2018-12-30T02:18:59.719Z,3.74
2018-12-30T02:20:01.120Z,3.73
2018-12-30T02:20:59.979Z,3.75
2018-12-30T02:21:59.805Z,3.75
2018-12-30T02:23:00.224Z,3.75
2018-12-30T02:23:59.928Z,3.76
2018-12-30T02:24:59.942Z,3.76
2018-12-30T02:25:59.882Z,3.76
2018-12-30T02:26:59.842Z,3.75
2018-12-30T02:28:00.053Z,3.76
2018-12-30T02:28:59.987Z,3.76
2018-12-30T02:30:00.623Z,3.77
2018-12-30T02:30:59.886Z,3.77
2018-12-30T02:31:59.774Z,3.76
2018-12-30T02:33:00.058Z,3.77
2018-12-30T02:34:00.045Z,3.75
2018-12-30T02:35:00.421Z,3.76
2018-12-30T02:35:59.857Z,3.74
2018-12-30T02:37:01.278Z,3.76
2018-12-30T02:37:59.881Z,3.75
2018-12-30T02:38:59.969Z,3.77
2018-12-30T02:40:00.040Z,3.77
2018-12-30T02:40:59.905Z,3.77
2018-12-30T02:41:59.974Z,3.75
2018-12-30T02:42:59.972Z,3.77
2018-12-30T02:44:00.064Z,3.75
2018-12-30T02:44:59.969Z,3.77
2018-12-30T02:46:01.268Z,3.75
2018-12-30T02:47:00.232Z,3.78
2018-12-30T02:47:59.723Z,3.74
2018-12-30T02:49:00.556Z,3.77
2018-12-30T02:49:59.959Z,3.77
2018-12-30T02:51:00.472Z,3.77
2018-12-30T02:51:59.978Z,3.77
2018-12-30T02:52:59.782Z,3.78
2018-12-30T02:53:59.778Z,3.75
2018-12-30T02:55:01.712Z,3.79
2018-12-30T02:55:59.967Z,3.77
2018-12-30T02:56:59.797Z,3.78
2018-12-30T02:57:59.880Z,3.79
2018-12-30T02:58:59.921Z,3.77
2018-12-30T02:59:59.832Z,3.78
2018-12-30T03:01:00.351Z,3.78
2018-12-30T03:02:00.145Z,3.78
2018-12-30T03:03:00.115Z,3.78
2018-12-30T03:04:01.555Z,3.77
2018-12-30T03:04:59.830Z,3.78
2018-12-30T03:05:59.917Z,3.78
2018-12-30T03:06:59.840Z,3.8
2018-12-30T03:07:59.684Z,3.79
2018-12-30T03:08:59.961Z,3.78
2018-12-30T03:09:59.767Z,3.79
2018-12-30T03:10:59.662Z,3.82
2018-12-30T03:11:59.808Z,3.79
2018-12-30T03:13:01.563Z,3.82
2018-12-30T03:13:59.906Z,3.79
2018-12-30T03:14:59.909Z,3.82
2018-12-30T03:15:59.857Z,3.82
2018-12-30T03:17:00.562Z,3.83
2018-12-30T03:17:59.859Z,3.83
2018-12-30T03:18:59.805Z,3.83
2018-12-30T03:20:00.578Z,3.84
2018-12-30T03:20:59.901Z,3.82
2018-12-30T03:22:00.444Z,3.84
2018-12-30T03:22:59.830Z,3.81
2018-12-30T03:23:59.630Z,3.84
2018-12-30T03:24:59.790Z,3.84
2018-12-30T03:25:59.814Z,3.86
2018-12-30T03:26:59.863Z,3.88
2018-12-30T03:27:59.663Z,3.88
2018-12-30T03:28:59.634Z,3.87
2018-12-30T03:29:59.627Z,3.88
2018-12-30T03:30:59.708Z,3.89
2018-12-30T03:31:59.866Z,3.89
2018-12-30T03:32:59.803Z,3.89
2018-12-30T03:33:59.909Z,3.9
2018-12-30T03:34:59.755Z,3.89
2018-12-30T03:35:59.610Z,3.91
2018-12-30T03:36:59.646Z,3.88
2018-12-30T03:37:59.870Z,3.91
2018-12-30T03:38:59.607Z,3.91
2018-12-30T03:39:59.787Z,3.91
2018-12-30T03:40:59.691Z,3.92
2018-12-30T03:41:59.646Z,3.94
2018-12-30T03:42:59.685Z,3.94
2018-12-30T03:44:00.027Z,3.94
2018-12-30T03:44:59.700Z,3.94
2018-12-30T03:45:59.738Z,3.95
2018-12-30T03:46:59.630Z,3.95
2018-12-30T03:47:59.688Z,3.93
2018-12-30T03:48:59.725Z,3.95
2018-12-30T03:49:59.630Z,3.94
2018-12-30T03:50:59.904Z,3.95
2018-12-30T03:52:09.144Z,3.95
2018-12-30T03:52:59.600Z,3.94
2018-12-30T03:53:59.604Z,3.93
2018-12-30T03:54:59.693Z,3.91
2018-12-30T03:55:59.689Z,3.91
2018-12-30T03:56:59.640Z,3.94
2018-12-30T03:57:59.645Z,3.91
2018-12-30T03:58:59.630Z,3.9
2018-12-30T03:59:59.505Z,3.91
2018-12-30T04:00:59.576Z,3.91
2018-12-30T04:01:59.654Z,3.9
2018-12-30T04:02:59.557Z,3.9
2018-12-30T04:03:59.547Z,3.89
2018-12-30T04:05:00.455Z,3.89
2018-12-30T04:05:59.571Z,3.89
2018-12-30T04:06:59.507Z,3.87
2018-12-30T04:07:59.644Z,3.88
2018-12-30T04:08:59.738Z,3.86
2018-12-30T04:09:59.534Z,3.86
2018-12-30T04:10:59.748Z,3.87
2018-12-30T04:12:00.542Z,3.87
2018-12-30T04:12:59.678Z,3.88
2018-12-30T04:13:59.751Z,3.88
2018-12-30T04:14:59.622Z,3.86
2018-12-30T04:15:59.660Z,3.86
2018-12-30T04:16:59.711Z,3.86
2018-12-30T04:17:59.792Z,3.85
2018-12-30T04:18:59.890Z,3.86
2018-12-30T04:19:59.656Z,3.88
2018-12-30T04:20:59.682Z,3.86
2018-12-30T04:21:59.804Z,3.88
2018-12-30T04:22:59.622Z,3.87
2018-12-30T04:23:59.984Z,3.88
2018-12-30T04:24:59.933Z,3.89
2018-12-30T04:25:59.651Z,3.87
2018-12-30T04:26:59.657Z,3.9
2018-12-30T04:27:59.925Z,3.91
2018-12-30T04:28:59.951Z,3.9
2018-12-30T04:29:59.601Z,3.9
2018-12-30T04:30:59.643Z,3.9
2018-12-30T04:31:59.711Z,3.91
2018-12-30T04:32:59.677Z,3.91
2018-12-30T04:33:59.745Z,3.91
2018-12-30T04:34:59.652Z,3.93
2018-12-30T04:35:59.657Z,3.92
2018-12-30T04:36:59.650Z,3.95
2018-12-30T04:37:59.688Z,3.94
2018-12-30T04:38:59.704Z,3.95
2018-12-30T04:39:59.716Z,3.96
2018-12-30T04:40:59.727Z,3.96
2018-12-30T04:41:59.719Z,3.95
2018-12-30T04:43:00.427Z,3.97
2018-12-30T04:43:59.762Z,3.98
2018-12-30T04:44:59.578Z,3.98
2018-12-30T04:45:59.851Z,3.99
2018-12-30T04:46:59.630Z,3.99
2018-12-30T04:47:59.727Z,4.02
2018-12-30T04:48:59.696Z,3.98
2018-12-30T04:49:59.583Z,4
2018-12-30T04:50:59.539Z,4.03
2018-12-30T04:51:59.813Z,4.03
2018-12-30T04:52:59.882Z,4.02
2018-12-30T04:53:59.641Z,4.07
2018-12-30T04:54:59.622Z,4.04
2018-12-30T04:55:59.738Z,4.04
2018-12-30T04:56:59.823Z,4.04
2018-12-30T04:57:59.727Z,4.07
2018-12-30T04:58:59.598Z,4.07
2018-12-30T04:59:59.986Z,4.08
2018-12-30T05:01:00.398Z,4.08
2018-12-30T05:01:59.718Z,4.09
2018-12-30T05:02:59.523Z,4.09
2018-12-30T05:03:59.546Z,4.08
2018-12-30T05:04:59.641Z,4.09
2018-12-30T05:05:59.647Z,4.1
2018-12-30T05:06:59.600Z,4.1
2018-12-30T05:07:59.576Z,4.1
2018-12-30T05:08:59.519Z,4.1
2018-12-30T05:09:59.590Z,4.11
2018-12-30T05:10:59.621Z,4.13
2018-12-30T05:12:00.285Z,4.17
2018-12-30T05:12:59.648Z,4.19
2018-12-30T05:13:59.579Z,4.22
2018-12-30T05:14:59.727Z,4.21
2018-12-30T05:15:59.771Z,4.24
2018-12-30T05:16:59.937Z,4.26
2018-12-30T05:17:59.939Z,4.28
2018-12-30T05:18:59.759Z,4.28
2018-12-30T05:19:59.635Z,4.29
2018-12-30T05:20:59.523Z,4.31
2018-12-30T05:21:59.628Z,4.3
2018-12-30T05:22:59.702Z,4.33
2018-12-30T05:23:59.605Z,4.31
2018-12-30T05:24:59.768Z,4.34
2018-12-30T05:25:59.640Z,4.34
2018-12-30T05:26:59.530Z,4.35
2018-12-30T05:28:00.240Z,4.37
2018-12-30T05:28:59.789Z,4.4
2018-12-30T05:29:59.567Z,4.46
2018-12-30T05:30:59.551Z,4.46
2018-12-30T05:31:59.647Z,4.46
2018-12-30T05:32:59.962Z,4.47
2018-12-30T05:33:59.685Z,4.47
2018-12-30T05:34:59.808Z,4.46
2018-12-30T05:35:59.601Z,4.47
2018-12-30T05:37:00.195Z,4.51
2018-12-30T05:37:59.483Z,4.53
2018-12-30T05:38:59.559Z,4.52
2018-12-30T05:39:59.536Z,4.52
2018-12-30T05:40:59.544Z,4.53
2018-12-30T05:41:59.499Z,4.56
2018-12-30T05:42:59.761Z,4.55
2018-12-30T05:43:59.508Z,4.57
2018-12-30T05:44:59.572Z,4.55
2018-12-30T05:45:59.493Z,4.59
2018-12-30T05:46:59.736Z,4.59
2018-12-30T05:47:59.485Z,4.59
2018-12-30T05:48:59.579Z,4.59
2018-12-30T05:49:59.499Z,4.6
2018-12-30T05:50:59.561Z,4.59
2018-12-30T05:51:59.569Z,4.6
2018-12-30T05:52:59.493Z,4.64
2018-12-30T05:53:59.479Z,4.65
2018-12-30T05:54:59.463Z,4.66
2018-12-30T05:55:59.494Z,4.67
2018-12-30T05:56:59.548Z,4.68
2018-12-30T05:58:01.073Z,4.67
2018-12-30T05:58:59.460Z,4.7
2018-12-30T05:59:59.608Z,4.68
2018-12-30T06:00:59.441Z,4.7
2018-12-30T06:01:59.534Z,4.7
2018-12-30T06:02:59.520Z,4.7
2018-12-30T06:03:59.529Z,4.68
2018-12-30T06:05:00.325Z,4.7
2018-12-30T06:05:59.788Z,4.7
2018-12-30T06:06:59.518Z,4.69
2018-12-30T06:07:59.784Z,4.7
2018-12-30T06:08:59.503Z,4.69
2018-12-30T06:09:59.642Z,4.69
2018-12-30T06:11:00.114Z,4.68
2018-12-30T06:11:59.562Z,4.66
2018-12-30T06:12:59.651Z,4.66
2018-12-30T06:13:59.468Z,4.66
2018-12-30T06:14:59.563Z,4.65
2018-12-30T06:15:59.437Z,4.65
2018-12-30T06:16:59.848Z,4.65
2018-12-30T06:17:59.434Z,4.64
2018-12-30T06:18:59.519Z,4.62
2018-12-30T06:19:59.476Z,4.63
2018-12-30T06:20:59.588Z,4.59
2018-12-30T06:21:59.452Z,4.59
2018-12-30T06:22:59.503Z,4.58
2018-12-30T06:23:59.578Z,4.58
2018-12-30T06:25:00.266Z,4.59
2018-12-30T06:25:59.715Z,4.59
2018-12-30T06:26:59.666Z,4.58
2018-12-30T06:27:59.487Z,4.58
2018-12-30T06:28:59.642Z,4.56
2018-12-30T06:29:59.413Z,4.57
2018-12-30T06:30:59.608Z,4.54
2018-12-30T06:31:59.392Z,4.54
2018-12-30T06:32:59.572Z,4.54
2018-12-30T06:33:59.465Z,4.54
2018-12-30T06:34:59.622Z,4.54
2018-12-30T06:35:59.544Z,4.53
2018-12-30T06:36:59.927Z,4.53
2018-12-30T06:37:59.590Z,4.52
2018-12-30T06:38:59.446Z,4.52
2018-12-30T06:39:59.485Z,4.5
2018-12-30T06:40:59.562Z,4.52
2018-12-30T06:41:59.636Z,4.52
2018-12-30T06:42:59.658Z,4.52
2018-12-30T06:43:59.510Z,4.53
2018-12-30T06:44:59.450Z,4.52
2018-12-30T06:45:59.490Z,4.53
2018-12-30T06:46:59.727Z,4.51
2018-12-30T06:47:59.796Z,4.5
2018-12-30T06:48:59.830Z,4.52
2018-12-30T06:49:59.793Z,4.52
2018-12-30T06:50:59.535Z,4.53
2018-12-30T06:51:59.608Z,4.53
2018-12-30T06:52:59.439Z,4.54
2018-12-30T06:53:59.516Z,4.55
2018-12-30T06:54:59.513Z,4.51
2018-12-30T06:55:59.467Z,4.54
2018-12-30T06:56:59.380Z,4.53
2018-12-30T06:57:59.392Z,4.54
2018-12-30T06:58:59.365Z,4.53
2018-12-30T06:59:59.522Z,4.53
2018-12-30T07:00:59.395Z,4.54
2018-12-30T07:01:59.417Z,4.53
2018-12-30T07:02:59.462Z,4.54
2018-12-30T07:03:59.674Z,4.57
2018-12-30T07:04:59.491Z,4.54
2018-12-30T07:05:59.536Z,4.55
2018-12-30T07:06:59.492Z,4.55
2018-12-30T07:07:59.460Z,4.55
2018-12-30T07:09:03.865Z,4.56
2018-12-30T07:09:59.457Z,4.56
2018-12-30T07:10:59.505Z,4.54
2018-12-30T07:11:59.493Z,4.56
2018-12-30T07:12:59.541Z,4.57
2018-12-30T07:13:59.466Z,4.54
2018-12-30T07:14:59.620Z,4.56
2018-12-30T07:15:59.500Z,4.54
2018-12-30T07:16:59.579Z,4.57
2018-12-30T07:17:59.515Z,4.57
2018-12-30T07:18:59.551Z,4.56
2018-12-30T07:19:59.361Z,4.57
2018-12-30T07:20:59.488Z,4.57
2018-12-30T07:21:59.894Z,4.57
2018-12-30T07:23:06.513Z,4.57
2018-12-30T07:24:00.112Z,4.57
2018-12-30T07:24:59.469Z,4.57
2018-12-30T07:25:59.507Z,4.57
2018-12-30T07:26:59.512Z,4.56
2018-12-30T07:27:59.387Z,4.58
2018-12-30T07:28:59.395Z,4.58
2018-12-30T07:29:59.313Z,4.57
2018-12-30T07:30:59.459Z,4.58
2018-12-30T07:31:59.439Z,4.58
2018-12-30T07:32:59.388Z,4.58
2018-12-30T07:33:59.486Z,4.56
2018-12-30T07:34:59.365Z,4.59
2018-12-30T07:35:59.426Z,4.58
2018-12-30T07:36:59.387Z,4.6
2018-12-30T07:37:59.321Z,4.61
2018-12-30T07:38:59.416Z,4.62
2018-12-30T07:39:59.356Z,4.64
2018-12-30T07:40:59.273Z,4.64
2018-12-30T07:41:59.706Z,4.64
2018-12-30T07:42:59.354Z,4.64
2018-12-30T07:43:59.328Z,4.62
2018-12-30T07:44:59.352Z,4.66
2018-12-30T07:45:59.401Z,4.66
2018-12-30T07:46:59.675Z,4.66
2018-12-30T07:47:59.526Z,4.65
2018-12-30T07:48:59.521Z,4.65
2018-12-30T07:49:59.462Z,4.66
2018-12-30T07:50:59.396Z,4.7
2018-12-30T07:51:59.372Z,4.72
2018-12-30T07:52:59.434Z,4.72
2018-12-30T07:53:59.404Z,4.73
2018-12-30T07:54:59.378Z,4.72
2018-12-30T07:55:59.351Z,4.74
2018-12-30T07:56:59.489Z,4.72
2018-12-30T07:57:59.550Z,4.73
2018-12-30T07:58:59.421Z,4.75
2018-12-30T07:59:59.463Z,4.74
2018-12-30T08:00:59.444Z,4.75
2018-12-30T08:01:59.375Z,4.75
2018-12-30T08:02:59.334Z,4.76
2018-12-30T08:03:59.541Z,4.77
2018-12-30T08:04:59.313Z,4.78
2018-12-30T08:05:59.573Z,4.78
2018-12-30T08:06:59.372Z,4.77
2018-12-30T08:07:59.373Z,4.76
2018-12-30T08:08:59.440Z,4.76
2018-12-30T08:09:59.496Z,4.76
2018-12-30T08:10:59.372Z,4.76
2018-12-30T08:11:59.782Z,4.75
2018-12-30T08:12:59.477Z,4.76
2018-12-30T08:13:59.507Z,4.77
2018-12-30T08:14:59.484Z,4.78
2018-12-30T08:15:59.388Z,4.77
2018-12-30T08:16:59.426Z,4.78
2018-12-30T08:17:59.514Z,4.78
2018-12-30T08:19:00.066Z,4.8
2018-12-30T08:19:59.433Z,4.78
2018-12-30T08:20:59.500Z,4.79
2018-12-30T08:21:59.392Z,4.8
2018-12-30T08:22:59.449Z,4.81
2018-12-30T08:24:00.197Z,4.79
2018-12-30T08:24:59.399Z,4.81
2018-12-30T08:25:59.502Z,4.84
2018-12-30T08:26:59.305Z,4.84
2018-12-30T08:27:59.232Z,4.84
2018-12-30T08:28:59.266Z,4.87
2018-12-30T08:29:59.286Z,4.88
2018-12-30T08:30:59.501Z,4.9
2018-12-30T08:31:59.459Z,4.92
2018-12-30T08:32:59.707Z,4.97
2018-12-30T08:33:59.146Z,4.98
2018-12-30T08:34:59.476Z,5
2018-12-30T08:35:59.449Z,5
2018-12-30T08:36:59.286Z,5.01
2018-12-30T08:37:59.550Z,5.02
2018-12-30T08:38:59.521Z,5.03
2018-12-30T08:39:59.271Z,5.03
2018-12-30T08:40:59.501Z,5.04
2018-12-30T08:41:59.373Z,5.06
2018-12-30T08:42:59.263Z,5.05
2018-12-30T08:43:59.303Z,5.07
2018-12-30T08:44:59.690Z,5.05
2018-12-30T08:45:59.459Z,5.09
2018-12-30T08:46:59.422Z,5.07
2018-12-30T08:47:59.374Z,5.08
2018-12-30T08:48:59.374Z,5.07
2018-12-30T08:49:59.325Z,5.11
2018-12-30T08:50:59.317Z,5.13
2018-12-30T08:51:59.669Z,5.16
2018-12-30T08:52:59.971Z,5.15
2018-12-30T08:53:59.283Z,5.15
2018-12-30T08:54:59.293Z,5.18
2018-12-30T08:55:59.438Z,5.18
2018-12-30T08:56:59.242Z,5.2
2018-12-30T08:57:59.417Z,5.21
2018-12-30T08:58:59.637Z,5.22
2018-12-30T08:59:59.460Z,5.22
2018-12-30T09:00:59.150Z,5.23
2018-12-30T09:01:59.275Z,5.22
2018-12-30T09:02:59.356Z,5.24
2018-12-30T09:03:59.633Z,5.23
2018-12-30T09:04:59.263Z,5.25
2018-12-30T09:05:59.511Z,5.24
2018-12-30T09:06:59.946Z,5.23
2018-12-30T09:07:59.459Z,5.28
2018-12-30T09:09:03.092Z,5.29
2018-12-30T09:10:01.988Z,5.28
2018-12-30T09:11:00.302Z,5.28
2018-12-30T09:11:59.285Z,5.3
2018-12-30T09:12:59.535Z,5.31
2018-12-30T09:13:59.348Z,5.32
2018-12-30T09:14:59.404Z,5.33
2018-12-30T09:15:59.668Z,5.34
2018-12-30T09:16:59.198Z,5.34
2018-12-30T09:17:59.219Z,5.37
2018-12-30T09:18:59.216Z,5.35
2018-12-30T09:19:59.328Z,5.38
2018-12-30T09:21:02.265Z,5.39
2018-12-30T09:21:59.251Z,5.4
2018-12-30T09:22:59.223Z,5.4
2018-12-30T09:24:03.806Z,5.4
2018-12-30T09:24:59.169Z,5.44
2018-12-30T09:25:59.731Z,5.42
2018-12-30T09:26:59.125Z,5.44
2018-12-30T09:28:00.498Z,5.46
2018-12-30T09:28:59.997Z,5.45
2018-12-30T09:29:59.182Z,5.47
2018-12-30T09:30:59.265Z,5.48
2018-12-30T09:31:59.183Z,5.51
2018-12-30T09:32:59.295Z,5.49
2018-12-30T09:33:59.214Z,5.52
2018-12-30T09:34:59.355Z,5.53
2018-12-30T09:35:59.477Z,5.54
2018-12-30T09:36:59.487Z,5.55
2018-12-30T09:37:59.374Z,5.54
2018-12-30T09:38:59.394Z,5.53
2018-12-30T09:39:59.353Z,5.57
2018-12-30T09:40:59.226Z,5.58
2018-12-30T09:42:01.331Z,5.58
2018-12-30T09:42:59.291Z,5.57
2018-12-30T09:43:59.210Z,5.59
2018-12-30T09:44:59.318Z,5.58
2018-12-30T09:45:59.192Z,5.6
2018-12-30T09:46:59.626Z,5.62
2018-12-30T09:47:59.310Z,5.64
2018-12-30T09:48:59.180Z,5.62
2018-12-30T09:49:59.356Z,5.64
2018-12-30T09:50:59.931Z,5.64
2018-12-30T09:51:59.609Z,5.65
2018-12-30T09:52:59.343Z,5.66
2018-12-30T09:53:59.230Z,5.67
2018-12-30T09:54:59.255Z,5.69
2018-12-30T09:55:59.308Z,5.72
2018-12-30T09:56:59.337Z,5.73
2018-12-30T09:57:59.270Z,5.74
2018-12-30T09:58:59.220Z,5.78
2018-12-30T09:59:59.161Z,5.79
2018-12-30T10:00:59.393Z,5.79
2018-12-30T10:01:59.113Z,5.79
2018-12-30T10:02:59.323Z,5.8
2018-12-30T10:03:59.252Z,5.83
2018-12-30T10:04:59.251Z,5.84
2018-12-30T10:05:59.326Z,5.85
2018-12-30T10:06:59.454Z,5.85
2018-12-30T10:07:59.206Z,5.85
2018-12-30T10:08:59.250Z,5.87
2018-12-30T10:09:59.297Z,5.89
2018-12-30T10:10:59.366Z,5.9
2018-12-30T10:11:59.896Z,5.91
2018-12-30T10:12:59.744Z,5.89
2018-12-30T10:13:59.161Z,5.9
2018-12-30T10:15:10.421Z,5.91
2018-12-30T10:15:59.311Z,5.91
2018-12-30T10:16:59.234Z,5.94
2018-12-30T10:17:59.169Z,5.93
2018-12-30T10:18:59.944Z,5.95
2018-12-30T10:19:59.136Z,5.92
2018-12-30T10:20:59.141Z,5.95
2018-12-30T10:21:59.451Z,5.96
2018-12-30T10:22:59.321Z,5.97
2018-12-30T10:23:59.189Z,5.98
2018-12-30T10:24:59.242Z,6.01
2018-12-30T10:25:59.447Z,6
2018-12-30T10:26:59.216Z,6.03
2018-12-30T10:27:59.235Z,6.03
2018-12-30T10:29:04.532Z,6.03
2018-12-30T10:29:59.204Z,6.03
2018-12-30T10:30:59.350Z,6.06
2018-12-30T10:31:59.356Z,6.03
2018-12-30T10:32:59.214Z,6.07
2018-12-30T10:33:59.274Z,6.07
2018-12-30T10:34:59.080Z,6.08
2018-12-30T10:35:59.140Z,6.08
2018-12-30T10:36:59.543Z,6.08
2018-12-30T10:37:59.370Z,6.08
2018-12-30T10:38:59.216Z,6.09
2018-12-30T10:40:00.338Z,6.14
2018-12-30T10:40:59.265Z,6.13
2018-12-30T10:41:59.630Z,6.14
2018-12-30T10:42:59.411Z,6.15
2018-12-30T10:43:59.366Z,6.14
2018-12-30T10:44:59.241Z,6.15
2018-12-30T10:45:59.226Z,6.16
2018-12-30T10:46:59.045Z,6.16
2018-12-30T10:47:59.067Z,6.16
2018-12-30T10:48:59.265Z,6.19
2018-12-30T10:49:59.201Z,6.2
2018-12-30T10:50:59.379Z,6.2
2018-12-30T10:51:59.085Z,6.18
2018-12-30T10:52:59.260Z,6.2
2018-12-30T10:54:01.175Z,6.19
2018-12-30T10:54:59.844Z,6.2
2018-12-30T10:55:59.245Z,6.2
2018-12-30T10:56:59.435Z,6.21
2018-12-30T10:57:59.238Z,6.22
2018-12-30T10:58:59.436Z,6.21
2018-12-30T10:59:59.355Z,6.21
2018-12-30T11:00:59.074Z,6.22
2018-12-30T11:01:59.424Z,6.21
2018-12-30T11:02:59.380Z,6.19
2018-12-30T11:03:59.298Z,6.18
2018-12-30T11:04:59.436Z,6.2
2018-12-30T11:05:59.282Z,6.21
2018-12-30T11:06:59.757Z,6.2
2018-12-30T11:07:59.468Z,6.21
2018-12-30T11:08:59.251Z,6.22
2018-12-30T11:09:59.263Z,6.21
2018-12-30T11:10:59.744Z,6.21
2018-12-30T11:11:59.376Z,6.22
2018-12-30T11:12:59.389Z,6.21
2018-12-30T11:13:59.340Z,6.21
2018-12-30T11:14:59.496Z,6.22
2018-12-30T11:15:59.682Z,6.22
2018-12-30T11:16:59.355Z,6.25
2018-12-30T11:17:59.149Z,6.24
2018-12-30T11:18:59.037Z,6.25
2018-12-30T11:19:59.447Z,6.26
2018-12-30T11:20:59.423Z,6.24
2018-12-30T11:21:59.177Z,6.22
2018-12-30T11:22:59.327Z,6.26
2018-12-30T11:23:59.874Z,6.24
2018-12-30T11:24:59.551Z,6.26
2018-12-30T11:25:59.890Z,6.23
2018-12-30T11:26:59.210Z,6.27
2018-12-30T11:27:59.612Z,6.28
2018-12-30T11:28:59.085Z,6.28
2018-12-30T11:29:59.335Z,6.27
2018-12-30T11:30:59.374Z,6.28
2018-12-30T11:31:59.208Z,6.28
2018-12-30T11:32:59.128Z,6.29
2018-12-30T11:33:59.085Z,6.29
2018-12-30T11:34:59.114Z,6.28
2018-12-30T11:35:59.454Z,6.28
2018-12-30T11:36:59.254Z,6.28
2018-12-30T11:38:00.923Z,6.3
2018-12-30T11:38:59.395Z,6.3
2018-12-30T11:39:59.266Z,6.31
2018-12-30T11:40:59.185Z,6.32
2018-12-30T11:41:59.232Z,6.33
2018-12-30T11:42:59.229Z,6.34
2018-12-30T11:43:59.146Z,6.35
2018-12-30T11:44:59.991Z,6.37
2018-12-30T11:45:59.200Z,6.4
2018-12-30T11:46:59.220Z,6.41
2018-12-30T11:47:58.966Z,6.41
2018-12-30T11:48:59.162Z,6.43
2018-12-30T11:49:59.067Z,6.41
2018-12-30T11:50:59.120Z,6.41
2018-12-30T11:51:59.053Z,6.41
2018-12-30T11:52:59.296Z,6.47
2018-12-30T11:53:59.396Z,6.47
2018-12-30T11:54:59.157Z,6.48
2018-12-30T11:55:59.227Z,6.47
2018-12-30T11:56:59.321Z,6.46
2018-12-30T11:57:59.076Z,6.47
2018-12-30T11:58:59.578Z,6.47
2018-12-30T11:59:59.776Z,6.46
2018-12-30T12:00:59.167Z,6.5
2018-12-30T12:01:59.204Z,6.47
2018-12-30T12:02:59.151Z,6.47
2018-12-30T12:03:59.559Z,6.47
2018-12-30T12:04:59.260Z,6.47
2018-12-30T12:05:59.300Z,6.46
2018-12-30T12:06:59.242Z,6.47
2018-12-30T12:07:59.291Z,6.48
2018-12-30T12:08:59.020Z,6.49
2018-12-30T12:09:58.981Z,6.49
2018-12-30T12:10:59.107Z,6.47
2018-12-30T12:11:59.211Z,6.46
2018-12-30T12:12:59.383Z,6.47
2018-12-30T12:13:59.259Z,6.47
2018-12-30T12:14:59.052Z,6.46
2018-12-30T12:15:59.271Z,6.46
2018-12-30T12:16:59.115Z,6.45
2018-12-30T12:17:59.269Z,6.46
2018-12-30T12:18:59.027Z,6.46
2018-12-30T12:19:59.250Z,6.46
2018-12-30T12:20:59.230Z,6.47
2018-12-30T12:21:59.069Z,6.47
2018-12-30T12:22:59.140Z,6.47
2018-12-30T12:23:59.350Z,6.46
2018-12-30T12:24:59.117Z,6.47
2018-12-30T12:26:01.911Z,6.46
2018-12-30T12:26:59.360Z,6.45
2018-12-30T12:27:59.186Z,6.48
2018-12-30T12:28:59.242Z,6.45
2018-12-30T12:29:59.130Z,6.46
2018-12-30T12:30:59.240Z,6.47
2018-12-30T12:31:59.082Z,6.48
2018-12-30T12:32:59.471Z,6.46
2018-12-30T12:33:59.031Z,6.48
2018-12-30T12:34:59.104Z,6.47
2018-12-30T12:35:59.036Z,6.47
2018-12-30T12:36:59.051Z,6.47
2018-12-30T12:37:59.310Z,6.47
2018-12-30T12:38:59.832Z,6.48
2018-12-30T12:39:59.100Z,6.48
2018-12-30T12:40:59.263Z,6.53
2018-12-30T12:41:59.033Z,6.52
2018-12-30T12:42:59.653Z,6.51
2018-12-30T12:43:59.516Z,6.51
2018-12-30T12:44:58.943Z,6.52
2018-12-30T12:45:59.178Z,6.51
2018-12-30T12:46:59.158Z,6.54
2018-12-30T12:47:59.301Z,6.55
2018-12-30T12:48:59.252Z,6.54
2018-12-30T12:49:59.336Z,6.57
2018-12-30T12:50:59.049Z,6.57
2018-12-30T12:51:59.062Z,6.59
2018-12-30T12:52:59.033Z,6.59
2018-12-30T12:53:59.037Z,6.58
2018-12-30T12:54:59.267Z,6.58
2018-12-30T12:55:58.952Z,6.59
2018-12-30T12:56:59.285Z,6.59
2018-12-30T12:57:59.220Z,6.58
2018-12-30T12:58:59.446Z,6.6
2018-12-30T12:59:59.504Z,6.61
2018-12-30T13:00:59.094Z,6.62
2018-12-30T13:01:59.287Z,6.59
2018-12-30T13:02:59.143Z,6.6
2018-12-30T13:03:59.114Z,6.6
2018-12-30T13:04:59.392Z,6.59
2018-12-30T13:05:59.377Z,6.6
2018-12-30T13:06:59.128Z,6.62
2018-12-30T13:07:59.007Z,6.6
2018-12-30T13:08:59.046Z,6.59
2018-12-30T13:09:58.914Z,6.59
2018-12-30T13:10:59.207Z,6.59
2018-12-30T13:11:58.890Z,6.59
2018-12-30T13:12:58.949Z,6.59
2018-12-30T13:13:59.652Z,6.58
2018-12-30T13:14:59.286Z,6.58
2018-12-30T13:16:04.056Z,6.57
2018-12-30T13:16:59.107Z,6.55
2018-12-30T13:17:59.306Z,6.56
2018-12-30T13:18:59.164Z,6.53
2018-12-30T13:19:59.082Z,6.52
2018-12-30T13:20:59.402Z,6.54